sensor_id;sensor_type;location;lat;lon;timestamp;P1;durP1;ratioP1;P2;durP2;ratioP2
56285;SDS011;42191;47.562;9.686;2023-03-23T00:00:58;38.03;;;35.63;;
56285;SDS011;42191;47.562;9.686;2023-03-23T00:03:26;35.90;;;33.70;;
56285;SDS011;42191;47.562;9.686;2023-03-23T00:05:54;35.15;;;32.92;;
56285;SDS011;42191;47.562;9.686;2023-03-23T00:08:24;35.08;;;32.78;;
56285;SDS011;42191;47.562;9.686;2023-03-23T00:10:51;35.17;;;32.97;;
56285;SDS011;42191;47.562;9.686;2023-03-23T00:13:24;34.83;;;32.63;;
56285;SDS011;42191;47.562;9.686;2023-03-23T00:15:50;35.55;;;33.35;;
56285;SDS011;42191;47.562;9.686;2023-03-23T00:18:20;37.67;;;35.20;;
56285;SDS011;42191;47.562;9.686;2023-03-23T00:20:51;34.65;;;32.55;;
56285;SDS011;42191;47.562;9.686;2023-03-23T00:23:20;35.40;;;33.22;;
56285;SDS011;42191;47.562;9.686;2023-03-23T00:25:54;37.53;;;35.08;;
56285;SDS011;42191;47.562;9.686;2023-03-23T00:28:25;34.45;;;32.35;;
56285;SDS011;42191;47.562;9.686;2023-03-23T00:31:02;35.47;;;33.28;;
56285;SDS011;42191;47.562;9.686;2023-03-23T00:33:33;36.42;;;34.03;;
56285;SDS011;42191;47.562;9.686;2023-03-23T00:36:09;34.60;;;32.40;;
56285;SDS011;42191;47.562;9.686;2023-03-23T00:38:36;36.55;;;34.25;;
56285;SDS011;42191;47.562;9.686;2023-03-23T00:41:04;35.03;;;32.70;;
56285;SDS011;42191;47.562;9.686;2023-03-23T00:43:31;37.00;;;34.78;;
56285;SDS011;42191;47.562;9.686;2023-03-23T00:46:01;37.35;;;35.10;;
56285;SDS011;42191;47.562;9.686;2023-03-23T00:48:33;35.15;;;32.95;;
56285;SDS011;42191;47.562;9.686;2023-03-23T00:51:09;36.55;;;34.35;;
56285;SDS011;42191;47.562;9.686;2023-03-23T00:53:40;35.42;;;33.22;;
56285;SDS011;42191;47.562;9.686;2023-03-23T00:56:07;35.90;;;33.70;;
56285;SDS011;42191;47.562;9.686;2023-03-23T00:58:34;35.03;;;32.75;;
56285;SDS011;42191;47.562;9.686;2023-03-23T01:01:01;37.63;;;35.33;;
56285;SDS011;42191;47.562;9.686;2023-03-23T01:03:27;37.05;;;34.75;;
56285;SDS011;42191;47.562;9.686;2023-03-23T01:05:54;36.17;;;33.70;;
56285;SDS011;42191;47.562;9.686;2023-03-23T01:08:21;33.70;;;31.60;;
56285;SDS011;42191;47.562;9.686;2023-03-23T01:10:49;35.03;;;32.83;;
56285;SDS011;42191;47.562;9.686;2023-03-23T01:13:15;33.50;;;31.38;;
56285;SDS011;42191;47.562;9.686;2023-03-23T01:15:42;37.83;;;35.42;;
56285;SDS011;42191;47.562;9.686;2023-03-23T01:18:09;35.95;;;33.70;;
56285;SDS011;42191;47.562;9.686;2023-03-23T01:20:36;36.65;;;34.35;;
56285;SDS011;42191;47.562;9.686;2023-03-23T01:23:02;35.92;;;33.72;;
56285;SDS011;42191;47.562;9.686;2023-03-23T01:25:30;37.05;;;34.65;;
56285;SDS011;42191;47.562;9.686;2023-03-23T01:27:57;36.20;;;33.95;;
56285;SDS011;42191;47.562;9.686;2023-03-23T01:30:24;36.30;;;33.88;;
56285;SDS011;42191;47.562;9.686;2023-03-23T01:32:51;35.55;;;33.30;;
56285;SDS011;42191;47.562;9.686;2023-03-23T01:35:19;36.95;;;34.65;;
56285;SDS011;42191;47.562;9.686;2023-03-23T01:37:46;35.53;;;33.22;;
56285;SDS011;42191;47.562;9.686;2023-03-23T01:40:12;36.92;;;34.63;;
56285;SDS011;42191;47.562;9.686;2023-03-23T01:42:40;36.42;;;33.85;;
56285;SDS011;42191;47.562;9.686;2023-03-23T01:47:46;36.58;;;34.28;;
56285;SDS011;42191;47.562;9.686;2023-03-23T01:50:16;36.75;;;34.17;;
56285;SDS011;42191;47.562;9.686;2023-03-23T01:52:43;36.20;;;34.00;;
56285;SDS011;42191;47.562;9.686;2023-03-23T01:55:10;36.15;;;33.90;;
56285;SDS011;42191;47.562;9.686;2023-03-23T01:57:36;36.45;;;34.17;;
56285;SDS011;42191;47.562;9.686;2023-03-23T02:00:04;36.22;;;33.92;;
56285;SDS011;42191;47.562;9.686;2023-03-23T02:02:36;37.15;;;34.85;;
56285;SDS011;42191;47.562;9.686;2023-03-23T02:05:04;35.35;;;33.15;;
56285;SDS011;42191;47.562;9.686;2023-03-23T02:07:38;36.75;;;34.42;;
56285;SDS011;42191;47.562;9.686;2023-03-23T02:10:06;35.08;;;32.78;;
56285;SDS011;42191;47.562;9.686;2023-03-23T02:12:32;35.72;;;33.42;;
56285;SDS011;42191;47.562;9.686;2023-03-23T02:14:58;36.30;;;33.97;;
56285;SDS011;42191;47.562;9.686;2023-03-23T02:22:49;34.70;;;32.60;;
56285;SDS011;42191;47.562;9.686;2023-03-23T02:39:09;36.00;;;33.75;;
56285;SDS011;42191;47.562;9.686;2023-03-23T02:41:40;36.45;;;34.15;;
56285;SDS011;42191;47.562;9.686;2023-03-23T02:44:32;35.60;;;33.40;;
56285;SDS011;42191;47.562;9.686;2023-03-23T02:47:03;35.72;;;33.42;;
56285;SDS011;42191;47.562;9.686;2023-03-23T02:49:32;37.88;;;35.47;;
56285;SDS011;42191;47.562;9.686;2023-03-23T02:52:04;37.20;;;34.65;;
56285;SDS011;42191;47.562;9.686;2023-03-23T02:54:33;36.72;;;34.42;;
56285;SDS011;42191;47.562;9.686;2023-03-23T02:57:00;36.45;;;34.08;;
56285;SDS011;42191;47.562;9.686;2023-03-23T02:59:27;36.55;;;34.25;;
56285;SDS011;42191;47.562;9.686;2023-03-23T03:04:24;35.85;;;33.45;;
56285;SDS011;42191;47.562;9.686;2023-03-23T03:07:05;35.38;;;33.15;;
56285;SDS011;42191;47.562;9.686;2023-03-23T03:17:32;36.95;;;34.65;;
56285;SDS011;42191;47.562;9.686;2023-03-23T03:20:04;36.90;;;34.60;;
56285;SDS011;42191;47.562;9.686;2023-03-23T03:22:37;37.92;;;35.53;;
56285;SDS011;42191;47.562;9.686;2023-03-23T03:25:09;35.88;;;33.67;;
56285;SDS011;42191;47.562;9.686;2023-03-23T03:27:38;35.90;;;33.47;;
56285;SDS011;42191;47.562;9.686;2023-03-23T03:30:08;34.83;;;32.70;;
56285;SDS011;42191;47.562;9.686;2023-03-23T03:32:38;34.38;;;32.20;;
56285;SDS011;42191;47.562;9.686;2023-03-23T03:35:11;35.90;;;33.67;;
56285;SDS011;42191;47.562;9.686;2023-03-23T03:37:38;32.65;;;30.55;;
56285;SDS011;42191;47.562;9.686;2023-03-23T03:40:15;36.35;;;33.88;;
56285;SDS011;42191;47.562;9.686;2023-03-23T03:42:43;35.13;;;32.97;;
56285;SDS011;42191;47.562;9.686;2023-03-23T03:45:15;36.83;;;34.33;;
56285;SDS011;42191;47.562;9.686;2023-03-23T03:47:42;36.40;;;34.10;;
56285;SDS011;42191;47.562;9.686;2023-03-23T03:50:09;36.72;;;34.45;;
56285;SDS011;42191;47.562;9.686;2023-03-23T03:52:36;36.05;;;33.78;;
56285;SDS011;42191;47.562;9.686;2023-03-23T03:55:03;37.80;;;35.45;;
56285;SDS011;42191;47.562;9.686;2023-03-23T03:57:32;35.67;;;33.38;;
56285;SDS011;42191;47.562;9.686;2023-03-23T03:59:58;37.03;;;34.63;;
56285;SDS011;42191;47.562;9.686;2023-03-23T04:02:25;37.35;;;35.05;;
56285;SDS011;42191;47.562;9.686;2023-03-23T04:04:51;36.90;;;34.60;;
56285;SDS011;42191;47.562;9.686;2023-03-23T04:07:17;36.08;;;33.83;;
56285;SDS011;42191;47.562;9.686;2023-03-23T04:09:44;36.00;;;33.60;;
56285;SDS011;42191;47.562;9.686;2023-03-23T04:12:13;38.15;;;35.75;;
56285;SDS011;42191;47.562;9.686;2023-03-23T04:14:39;36.80;;;34.50;;
56285;SDS011;42191;47.562;9.686;2023-03-23T04:17:06;35.75;;;33.53;;
56285;SDS011;42191;47.562;9.686;2023-03-23T04:19:36;35.13;;;32.92;;
56285;SDS011;42191;47.562;9.686;2023-03-23T04:22:03;34.72;;;32.58;;
56285;SDS011;42191;47.562;9.686;2023-03-23T04:24:30;36.00;;;33.80;;
56285;SDS011;42191;47.562;9.686;2023-03-23T04:26:58;36.40;;;34.13;;
56285;SDS011;42191;47.562;9.686;2023-03-23T04:29:25;36.28;;;34.00;;
56285;SDS011;42191;47.562;9.686;2023-03-23T04:31:51;36.35;;;34.05;;
56285;SDS011;42191;47.562;9.686;2023-03-23T04:34:20;36.30;;;33.97;;
56285;SDS011;42191;47.562;9.686;2023-03-23T04:36:47;35.90;;;33.63;;
56285;SDS011;42191;47.562;9.686;2023-03-23T04:39:13;36.78;;;34.28;;
56285;SDS011;42191;47.562;9.686;2023-03-23T04:41:40;36.13;;;33.63;;
56285;SDS011;42191;47.562;9.686;2023-03-23T04:44:07;34.72;;;32.55;;
56285;SDS011;42191;47.562;9.686;2023-03-23T04:46:34;36.42;;;34.13;;
56285;SDS011;42191;47.562;9.686;2023-03-23T04:49:00;35.97;;;33.78;;
56285;SDS011;42191;47.562;9.686;2023-03-23T04:51:28;36.97;;;34.67;;
56285;SDS011;42191;47.562;9.686;2023-03-23T04:53:56;36.58;;;34.28;;
56285;SDS011;42191;47.562;9.686;2023-03-23T04:56:22;35.97;;;33.75;;
56285;SDS011;42191;47.562;9.686;2023-03-23T04:58:48;36.38;;;34.00;;
56285;SDS011;42191;47.562;9.686;2023-03-23T05:01:14;36.97;;;34.60;;
56285;SDS011;42191;47.562;9.686;2023-03-23T05:03:43;35.67;;;33.28;;
56285;SDS011;42191;47.562;9.686;2023-03-23T05:06:09;35.95;;;33.60;;
56285;SDS011;42191;47.562;9.686;2023-03-23T05:08:35;38.95;;;36.20;;
56285;SDS011;42191;47.562;9.686;2023-03-23T05:11:04;34.53;;;32.25;;
56285;SDS011;42191;47.562;9.686;2023-03-23T05:13:31;35.58;;;33.20;;
56285;SDS011;42191;47.562;9.686;2023-03-23T05:15:58;36.28;;;33.97;;
56285;SDS011;42191;47.562;9.686;2023-03-23T05:18:27;36.10;;;33.80;;
56285;SDS011;42191;47.562;9.686;2023-03-23T05:20:54;35.55;;;33.30;;
56285;SDS011;42191;47.562;9.686;2023-03-23T05:23:20;37.53;;;35.22;;
56285;SDS011;42191;47.562;9.686;2023-03-23T05:25:55;37.05;;;34.40;;
56285;SDS011;42191;47.562;9.686;2023-03-23T05:28:25;36.72;;;34.28;;
56285;SDS011;42191;47.562;9.686;2023-03-23T05:30:52;35.63;;;33.00;;
56285;SDS011;42191;47.562;9.686;2023-03-23T05:33:19;36.85;;;34.45;;
56285;SDS011;42191;47.562;9.686;2023-03-23T05:35:46;35.63;;;33.33;;
56285;SDS011;42191;47.562;9.686;2023-03-23T05:38:12;34.78;;;32.58;;
56285;SDS011;42191;47.562;9.686;2023-03-23T05:40:40;35.88;;;33.58;;
56285;SDS011;42191;47.562;9.686;2023-03-23T05:43:07;37.53;;;35.13;;
56285;SDS011;42191;47.562;9.686;2023-03-23T05:45:33;38.58;;;36.03;;
56285;SDS011;42191;47.562;9.686;2023-03-23T05:48:00;36.88;;;34.58;;
56285;SDS011;42191;47.562;9.686;2023-03-23T05:50:26;37.83;;;35.42;;
56285;SDS011;42191;47.562;9.686;2023-03-23T05:52:54;36.60;;;34.22;;
56285;SDS011;42191;47.562;9.686;2023-03-23T05:55:20;35.08;;;32.88;;
56285;SDS011;42191;47.562;9.686;2023-03-23T05:57:47;36.47;;;34.17;;
56285;SDS011;42191;47.562;9.686;2023-03-23T06:00:13;36.80;;;34.40;;
56285;SDS011;42191;47.562;9.686;2023-03-23T06:02:41;34.60;;;32.17;;
56285;SDS011;42191;47.562;9.686;2023-03-23T06:05:11;34.05;;;31.95;;
56285;SDS011;42191;47.562;9.686;2023-03-23T06:07:38;36.47;;;34.17;;
56285;SDS011;42191;47.562;9.686;2023-03-23T06:10:05;36.08;;;33.22;;
56285;SDS011;42191;47.562;9.686;2023-03-23T06:12:32;36.90;;;34.60;;
56285;SDS011;42191;47.562;9.686;2023-03-23T06:14:59;34.85;;;32.55;;
56285;SDS011;42191;47.562;9.686;2023-03-23T06:17:26;34.88;;;32.63;;
56285;SDS011;42191;47.562;9.686;2023-03-23T06:19:52;36.20;;;33.83;;
56285;SDS011;42191;47.562;9.686;2023-03-23T06:22:19;36.08;;;33.53;;
56285;SDS011;42191;47.562;9.686;2023-03-23T06:24:45;35.95;;;33.55;;
56285;SDS011;42191;47.562;9.686;2023-03-23T06:27:12;37.50;;;34.90;;
56285;SDS011;42191;47.562;9.686;2023-03-23T06:29:38;36.15;;;33.75;;
56285;SDS011;42191;47.562;9.686;2023-03-23T06:32:05;36.30;;;34.00;;
56285;SDS011;42191;47.562;9.686;2023-03-23T06:34:31;35.70;;;33.42;;
56285;SDS011;42191;47.562;9.686;2023-03-23T06:36:57;37.15;;;34.75;;
56285;SDS011;42191;47.562;9.686;2023-03-23T06:39:25;36.40;;;33.85;;
56285;SDS011;42191;47.562;9.686;2023-03-23T06:41:51;35.17;;;32.97;;
56285;SDS011;42191;47.562;9.686;2023-03-23T06:44:17;35.20;;;32.90;;
56285;SDS011;42191;47.562;9.686;2023-03-23T06:46:44;38.55;;;34.92;;
56285;SDS011;42191;47.562;9.686;2023-03-23T06:49:10;37.85;;;35.45;;
56285;SDS011;42191;47.562;9.686;2023-03-23T06:51:36;35.63;;;33.17;;
56285;SDS011;42191;47.562;9.686;2023-03-23T06:54:03;35.95;;;33.65;;
56285;SDS011;42191;47.562;9.686;2023-03-23T06:56:30;35.97;;;33.67;;
56285;SDS011;42191;47.562;9.686;2023-03-23T06:58:56;35.63;;;33.30;;
56285;SDS011;42191;47.562;9.686;2023-03-23T07:01:22;35.53;;;33.25;;
56285;SDS011;42191;47.562;9.686;2023-03-23T07:03:49;37.85;;;35.45;;
56285;SDS011;42191;47.562;9.686;2023-03-23T07:06:15;36.13;;;33.88;;
56285;SDS011;42191;47.562;9.686;2023-03-23T07:08:41;37.53;;;35.20;;
56285;SDS011;42191;47.562;9.686;2023-03-23T07:11:07;34.78;;;32.58;;
56285;SDS011;42191;47.562;9.686;2023-03-23T07:13:35;35.08;;;32.78;;
56285;SDS011;42191;47.562;9.686;2023-03-23T07:16:04;35.90;;;33.60;;
56285;SDS011;42191;47.562;9.686;2023-03-23T07:18:31;34.00;;;31.90;;
56285;SDS011;42191;47.562;9.686;2023-03-23T07:20:57;35.63;;;33.33;;
56285;SDS011;42191;47.562;9.686;2023-03-23T07:23:24;34.65;;;32.45;;
56285;SDS011;42191;47.562;9.686;2023-03-23T07:25:50;34.17;;;32.08;;
56285;SDS011;42191;47.562;9.686;2023-03-23T07:28:18;34.13;;;31.92;;
56285;SDS011;42191;47.562;9.686;2023-03-23T07:30:45;34.60;;;32.40;;
56285;SDS011;42191;47.562;9.686;2023-03-23T07:33:11;35.72;;;33.33;;
56285;SDS011;42191;47.562;9.686;2023-03-23T07:35:38;37.08;;;33.72;;
56285;SDS011;42191;47.562;9.686;2023-03-23T07:38:05;36.28;;;33.97;;
56285;SDS011;42191;47.562;9.686;2023-03-23T07:40:32;34.83;;;32.53;;
56285;SDS011;42191;47.562;9.686;2023-03-23T07:43:00;34.60;;;32.40;;
56285;SDS011;42191;47.562;9.686;2023-03-23T07:45:28;35.47;;;33.20;;
56285;SDS011;42191;47.562;9.686;2023-03-23T07:47:54;37.58;;;35.17;;
56285;SDS011;42191;47.562;9.686;2023-03-23T07:50:20;35.13;;;32.85;;
56285;SDS011;42191;47.562;9.686;2023-03-23T07:52:50;33.72;;;31.50;;
56285;SDS011;42191;47.562;9.686;2023-03-23T07:55:17;36.80;;;34.03;;
56285;SDS011;42191;47.562;9.686;2023-03-23T07:57:44;35.30;;;32.80;;
56285;SDS011;42191;47.562;9.686;2023-03-23T08:00:17;35.22;;;32.92;;
56285;SDS011;42191;47.562;9.686;2023-03-23T08:02:49;34.95;;;32.47;;
56285;SDS011;42191;47.562;9.686;2023-03-23T08:05:18;37.10;;;34.50;;
56285;SDS011;42191;47.562;9.686;2023-03-23T08:07:45;34.72;;;32.33;;
56285;SDS011;42191;47.562;9.686;2023-03-23T08:10:13;33.67;;;31.45;;
56285;SDS011;42191;47.562;9.686;2023-03-23T08:12:41;35.92;;;33.53;;
56285;SDS011;42191;47.562;9.686;2023-03-23T08:15:09;35.30;;;32.90;;
56285;SDS011;42191;47.562;9.686;2023-03-23T08:17:37;37.38;;;34.88;;
56285;SDS011;42191;47.562;9.686;2023-03-23T08:20:05;35.85;;;33.42;;
56285;SDS011;42191;47.562;9.686;2023-03-23T08:25:05;33.20;;;31.10;;
56285;SDS011;42191;47.562;9.686;2023-03-23T08:27:33;34.65;;;32.45;;
56285;SDS011;42191;47.562;9.686;2023-03-23T08:30:00;34.88;;;32.50;;
56285;SDS011;42191;47.562;9.686;2023-03-23T08:32:26;35.45;;;33.00;;
56285;SDS011;42191;47.562;9.686;2023-03-23T08:34:52;33.92;;;31.80;;
56285;SDS011;42191;47.562;9.686;2023-03-23T08:37:19;34.13;;;31.92;;
56285;SDS011;42191;47.562;9.686;2023-03-23T08:39:46;35.50;;;33.03;;
56285;SDS011;42191;47.562;9.686;2023-03-23T08:42:16;35.38;;;33.00;;
56285;SDS011;42191;47.562;9.686;2023-03-23T08:44:43;35.38;;;33.03;;
56285;SDS011;42191;47.562;9.686;2023-03-23T08:47:09;36.65;;;34.00;;
56285;SDS011;42191;47.562;9.686;2023-03-23T08:49:36;35.03;;;32.72;;
56285;SDS011;42191;47.562;9.686;2023-03-23T08:52:02;35.45;;;32.95;;
56285;SDS011;42191;47.562;9.686;2023-03-23T08:54:28;35.88;;;33.28;;
56285;SDS011;42191;47.562;9.686;2023-03-23T08:56:59;31.90;;;29.70;;
56285;SDS011;42191;47.562;9.686;2023-03-23T08:59:25;32.88;;;30.58;;
56285;SDS011;42191;47.562;9.686;2023-03-23T09:01:52;33.60;;;31.20;;
56285;SDS011;42191;47.562;9.686;2023-03-23T09:04:19;33.45;;;31.15;;
56285;SDS011;42191;47.562;9.686;2023-03-23T09:06:46;32.78;;;30.58;;
56285;SDS011;42191;47.562;9.686;2023-03-23T09:09:12;33.80;;;31.38;;
56285;SDS011;42191;47.562;9.686;2023-03-23T09:11:39;33.28;;;31.13;;
56285;SDS011;42191;47.562;9.686;2023-03-23T09:14:06;34.45;;;32.08;;
56285;SDS011;42191;47.562;9.686;2023-03-23T09:16:33;34.55;;;32.17;;
56285;SDS011;42191;47.562;9.686;2023-03-23T09:19:00;34.38;;;31.90;;
56285;SDS011;42191;47.562;9.686;2023-03-23T09:21:27;32.92;;;30.50;;
56285;SDS011;42191;47.562;9.686;2023-03-23T09:23:54;34.30;;;31.67;;
56285;SDS011;42191;47.562;9.686;2023-03-23T09:26:23;33.38;;;31.17;;
56285;SDS011;42191;47.562;9.686;2023-03-23T09:28:51;30.95;;;28.88;;
56285;SDS011;42191;47.562;9.686;2023-03-23T09:31:17;34.00;;;31.25;;
56285;SDS011;42191;47.562;9.686;2023-03-23T09:33:47;34.33;;;31.83;;
56285;SDS011;42191;47.562;9.686;2023-03-23T09:36:17;32.42;;;30.30;;
56285;SDS011;42191;47.562;9.686;2023-03-23T09:38:46;32.95;;;30.65;;
56285;SDS011;42191;47.562;9.686;2023-03-23T09:41:25;30.88;;;28.88;;
56285;SDS011;42191;47.562;9.686;2023-03-23T09:49:30;33.33;;;30.75;;
56285;SDS011;42191;47.562;9.686;2023-03-23T09:53:02;33.00;;;30.65;;
56285;SDS011;42191;47.562;9.686;2023-03-23T09:55:04;31.80;;;29.50;;
56285;SDS011;42191;47.562;9.686;2023-03-23T09:57:43;32.47;;;30.13;;
56285;SDS011;42191;47.562;9.686;2023-03-23T10:00:26;30.75;;;28.70;;
56285;SDS011;42191;47.562;9.686;2023-03-23T10:03:02;30.40;;;28.50;;
56285;SDS011;42191;47.562;9.686;2023-03-23T10:08:17;31.30;;;29.25;;
56285;SDS011;42191;47.562;9.686;2023-03-23T10:16:19;30.52;;;28.58;;
56285;SDS011;42191;47.562;9.686;2023-03-23T10:21:20;29.70;;;27.80;;
56285;SDS011;42191;47.562;9.686;2023-03-23T10:34:41;30.00;;;28.10;;
56285;SDS011;42191;47.562;9.686;2023-03-23T10:37:21;29.25;;;27.45;;
56285;SDS011;42191;47.562;9.686;2023-03-23T10:39:58;30.17;;;28.27;;
56285;SDS011;42191;47.562;9.686;2023-03-23T10:44:57;30.15;;;28.15;;
56285;SDS011;42191;47.562;9.686;2023-03-23T10:47:25;29.05;;;27.15;;
56285;SDS011;42191;47.562;9.686;2023-03-23T10:49:59;29.58;;;27.58;;
56285;SDS011;42191;47.562;9.686;2023-03-23T10:57:41;29.77;;;27.88;;
56285;SDS011;42191;47.562;9.686;2023-03-23T11:00:23;30.15;;;28.25;;
56285;SDS011;42191;47.562;9.686;2023-03-23T11:05:52;29.80;;;27.60;;
56285;SDS011;42191;47.562;9.686;2023-03-23T11:08:26;27.85;;;26.13;;
56285;SDS011;42191;47.562;9.686;2023-03-23T11:13:30;29.63;;;27.63;;
56285;SDS011;42191;47.562;9.686;2023-03-23T11:15:57;28.10;;;26.33;;
56285;SDS011;42191;47.562;9.686;2023-03-23T11:18:26;30.38;;;28.38;;
56285;SDS011;42191;47.562;9.686;2023-03-23T11:21:04;28.85;;;27.10;;
56285;SDS011;42191;47.562;9.686;2023-03-23T11:23:37;30.25;;;28.35;;
56285;SDS011;42191;47.562;9.686;2023-03-23T11:26:17;29.48;;;27.67;;
56285;SDS011;42191;47.562;9.686;2023-03-23T11:29:08;30.42;;;28.55;;
56285;SDS011;42191;47.562;9.686;2023-03-23T11:31:41;30.17;;;28.27;;
56285;SDS011;42191;47.562;9.686;2023-03-23T11:34:22;28.50;;;26.70;;
56285;SDS011;42191;47.562;9.686;2023-03-23T11:36:57;30.08;;;28.17;;
56285;SDS011;42191;47.562;9.686;2023-03-23T11:39:31;29.80;;;27.92;;
56285;SDS011;42191;47.562;9.686;2023-03-23T11:42:12;28.55;;;26.85;;
56285;SDS011;42191;47.562;9.686;2023-03-23T11:47:43;29.45;;;27.65;;
56285;SDS011;42191;47.562;9.686;2023-03-23T11:50:24;31.48;;;29.48;;
56285;SDS011;42191;47.562;9.686;2023-03-23T11:53:01;31.45;;;29.30;;
56285;SDS011;42191;47.562;9.686;2023-03-23T11:58:25;30.30;;;28.15;;
56285;SDS011;42191;47.562;9.686;2023-03-23T12:00:59;31.17;;;28.97;;
56285;SDS011;42191;47.562;9.686;2023-03-23T12:25:52;29.25;;;27.45;;
56285;SDS011;42191;47.562;9.686;2023-03-23T12:34:19;29.63;;;27.75;;
56285;SDS011;42191;47.562;9.686;2023-03-23T12:37:08;27.75;;;25.95;;
56285;SDS011;42191;47.562;9.686;2023-03-23T12:42:43;30.20;;;28.40;;
56285;SDS011;42191;47.562;9.686;2023-03-23T12:45:59;28.50;;;26.75;;
56285;SDS011;42191;47.562;9.686;2023-03-23T12:49:48;30.63;;;28.73;;
56285;SDS011;42191;47.562;9.686;2023-03-23T12:51:59;28.42;;;26.73;;
56285;SDS011;42191;47.562;9.686;2023-03-23T12:54:45;30.48;;;28.48;;
56285;SDS011;42191;47.562;9.686;2023-03-23T12:57:37;30.38;;;28.38;;
56285;SDS011;42191;47.562;9.686;2023-03-23T13:03:01;29.52;;;27.73;;
56285;SDS011;42191;47.562;9.686;2023-03-23T13:05:44;29.73;;;27.83;;
56285;SDS011;42191;47.562;9.686;2023-03-23T13:08:35;28.95;;;26.95;;
56285;SDS011;42191;47.562;9.686;2023-03-23T13:11:08;29.05;;;27.23;;
56285;SDS011;42191;47.562;9.686;2023-03-23T13:13:41;31.35;;;29.42;;
56285;SDS011;42191;47.562;9.686;2023-03-23T13:19:30;30.23;;;28.33;;
56285;SDS011;42191;47.562;9.686;2023-03-23T13:22:14;30.50;;;28.42;;
56285;SDS011;42191;47.562;9.686;2023-03-23T13:25:03;28.73;;;26.92;;
56285;SDS011;42191;47.562;9.686;2023-03-23T13:27:31;28.40;;;26.60;;
56285;SDS011;42191;47.562;9.686;2023-03-23T13:29:58;29.67;;;27.88;;
56285;SDS011;42191;47.562;9.686;2023-03-23T13:32:37;30.23;;;28.42;;
56285;SDS011;42191;47.562;9.686;2023-03-23T13:35:11;30.83;;;28.92;;
56285;SDS011;42191;47.562;9.686;2023-03-23T13:37:50;31.58;;;29.58;;
56285;SDS011;42191;47.562;9.686;2023-03-23T13:40:27;29.13;;;27.33;;
56285;SDS011;42191;47.562;9.686;2023-03-23T13:42:55;30.10;;;28.25;;
56285;SDS011;42191;47.562;9.686;2023-03-23T13:45:34;29.65;;;27.85;;
56285;SDS011;42191;47.562;9.686;2023-03-23T13:50:44;29.45;;;27.65;;
56285;SDS011;42191;47.562;9.686;2023-03-23T13:53:22;29.25;;;27.45;;
56285;SDS011;42191;47.562;9.686;2023-03-23T13:56:04;28.30;;;26.60;;
56285;SDS011;42191;47.562;9.686;2023-03-23T13:59:07;29.58;;;27.63;;
56285;SDS011;42191;47.562;9.686;2023-03-23T14:05:19;29.17;;;27.38;;
56285;SDS011;42191;47.562;9.686;2023-03-23T14:08:02;30.58;;;28.73;;
56285;SDS011;42191;47.562;9.686;2023-03-23T14:10:35;29.02;;;27.23;;
56285;SDS011;42191;47.562;9.686;2023-03-23T14:16:01;29.77;;;27.67;;
56285;SDS011;42191;47.562;9.686;2023-03-23T14:24:05;31.77;;;29.75;;
56285;SDS011;42191;47.562;9.686;2023-03-23T14:26:40;30.83;;;28.92;;
56285;SDS011;42191;47.562;9.686;2023-03-23T14:29:09;29.17;;;27.27;;
56285;SDS011;42191;47.562;9.686;2023-03-23T14:31:37;29.65;;;27.88;;
56285;SDS011;42191;47.562;9.686;2023-03-23T14:34:10;31.02;;;29.13;;
56285;SDS011;42191;47.562;9.686;2023-03-23T14:36:44;30.60;;;28.70;;
56285;SDS011;42191;47.562;9.686;2023-03-23T14:39:19;30.65;;;28.65;;
56285;SDS011;42191;47.562;9.686;2023-03-23T14:41:48;31.15;;;29.25;;
56285;SDS011;42191;47.562;9.686;2023-03-23T14:44:23;30.02;;;28.20;;
56285;SDS011;42191;47.562;9.686;2023-03-23T14:46:55;31.45;;;29.40;;
56285;SDS011;42191;47.562;9.686;2023-03-23T14:49:28;30.55;;;28.63;;
56285;SDS011;42191;47.562;9.686;2023-03-23T14:52:02;30.23;;;28.33;;
56285;SDS011;42191;47.562;9.686;2023-03-23T14:54:34;30.75;;;28.90;;
56285;SDS011;42191;47.562;9.686;2023-03-23T14:57:09;31.20;;;29.30;;
56285;SDS011;42191;47.562;9.686;2023-03-23T14:59:38;31.15;;;29.23;;
56285;SDS011;42191;47.562;9.686;2023-03-23T15:02:08;30.23;;;28.33;;
56285;SDS011;42191;47.562;9.686;2023-03-23T15:04:46;31.13;;;29.08;;
56285;SDS011;42191;47.562;9.686;2023-03-23T15:07:16;31.17;;;29.17;;
56285;SDS011;42191;47.562;9.686;2023-03-23T15:09:43;31.67;;;29.67;;
56285;SDS011;42191;47.562;9.686;2023-03-23T15:12:45;30.40;;;28.35;;
56285;SDS011;42191;47.562;9.686;2023-03-23T15:15:05;30.65;;;28.15;;
56285;SDS011;42191;47.562;9.686;2023-03-23T15:17:41;32.28;;;30.33;;
56285;SDS011;42191;47.562;9.686;2023-03-23T15:22:49;32.17;;;30.27;;
56285;SDS011;42191;47.562;9.686;2023-03-23T15:25:23;30.67;;;28.77;;
56285;SDS011;42191;47.562;9.686;2023-03-23T15:27:53;33.00;;;30.80;;
56285;SDS011;42191;47.562;9.686;2023-03-23T15:32:47;30.25;;;28.35;;
56285;SDS011;42191;47.562;9.686;2023-03-23T15:35:22;29.95;;;28.15;;
56285;SDS011;42191;47.562;9.686;2023-03-23T15:38:04;31.02;;;28.98;;
56285;SDS011;42191;47.562;9.686;2023-03-23T15:40:35;31.05;;;29.15;;
56285;SDS011;42191;47.562;9.686;2023-03-23T15:45:50;31.65;;;29.65;;
56285;SDS011;42191;47.562;9.686;2023-03-23T15:48:16;32.20;;;30.23;;
56285;SDS011;42191;47.562;9.686;2023-03-23T15:50:42;29.67;;;27.88;;
56285;SDS011;42191;47.562;9.686;2023-03-23T15:53:18;30.48;;;28.60;;
56285;SDS011;42191;47.562;9.686;2023-03-23T15:55:45;31.17;;;29.27;;
56285;SDS011;42191;47.562;9.686;2023-03-23T15:58:12;32.40;;;30.40;;
56285;SDS011;42191;47.562;9.686;2023-03-23T16:00:39;31.60;;;29.42;;
56285;SDS011;42191;47.562;9.686;2023-03-23T16:03:10;33.25;;;30.83;;
56285;SDS011;42191;47.562;9.686;2023-03-23T16:05:40;31.45;;;29.50;;
56285;SDS011;42191;47.562;9.686;2023-03-23T16:08:08;29.65;;;27.85;;
56285;SDS011;42191;47.562;9.686;2023-03-23T16:10:35;30.25;;;28.45;;
56285;SDS011;42191;47.562;9.686;2023-03-23T16:13:02;30.20;;;28.40;;
56285;SDS011;42191;47.562;9.686;2023-03-23T16:15:29;31.98;;;29.98;;
56285;SDS011;42191;47.562;9.686;2023-03-23T16:17:56;30.63;;;28.73;;
56285;SDS011;42191;47.562;9.686;2023-03-23T16:20:22;33.55;;;31.42;;
56285;SDS011;42191;47.562;9.686;2023-03-23T16:22:49;31.45;;;29.45;;
56285;SDS011;42191;47.562;9.686;2023-03-23T16:25:16;32.15;;;29.95;;
56285;SDS011;42191;47.562;9.686;2023-03-23T16:27:43;32.17;;;30.17;;
56285;SDS011;42191;47.562;9.686;2023-03-23T16:32:50;32.42;;;30.33;;
56285;SDS011;42191;47.562;9.686;2023-03-23T16:35:17;30.48;;;28.58;;
56285;SDS011;42191;47.562;9.686;2023-03-23T16:37:48;32.30;;;30.30;;
56285;SDS011;42191;47.562;9.686;2023-03-23T16:40:19;30.67;;;28.63;;
56285;SDS011;42191;47.562;9.686;2023-03-23T16:42:46;30.48;;;28.58;;
56285;SDS011;42191;47.562;9.686;2023-03-23T16:45:13;31.17;;;29.27;;
56285;SDS011;42191;47.562;9.686;2023-03-23T16:47:40;31.77;;;29.77;;
56285;SDS011;42191;47.562;9.686;2023-03-23T16:50:08;30.90;;;28.77;;
56285;SDS011;42191;47.562;9.686;2023-03-23T16:52:37;30.95;;;29.05;;
56285;SDS011;42191;47.562;9.686;2023-03-23T16:55:04;32.38;;;30.27;;
56285;SDS011;42191;47.562;9.686;2023-03-23T16:57:32;32.20;;;30.20;;
56285;SDS011;42191;47.562;9.686;2023-03-23T17:00:02;31.95;;;29.95;;
56285;SDS011;42191;47.562;9.686;2023-03-23T17:02:30;32.05;;;30.05;;